sensor_id;sensor_type;location;lat;lon;timestamp;pressure;altitude;pressure_sealevel;temperature;humidity
22257;BME280;11297;42.686;23.374;2022-09-27T00:00:15;94090.94;;;18.76;72.74
22257;BME280;11297;42.686;23.374;2022-09-27T00:02:40;94101.88;;;18.78;73.04
22257;BME280;11297;42.686;23.374;2022-09-27T00:05:06;94099.25;;;18.78;73.12
22257;BME280;11297;42.686;23.374;2022-09-27T00:07:31;94093.94;;;18.75;73.73
22257;BME280;11297;42.686;23.374;2022-09-27T00:09:57;94083.75;;;18.63;73.41
22257;BME280;11297;42.686;23.374;2022-09-27T00:12:22;94095.06;;;18.64;73.34
22257;BME280;11297;42.686;23.374;2022-09-27T00:14:48;94096.91;;;18.63;74.54
22257;BME280;11297;42.686;23.374;2022-09-27T00:17:13;94079.59;;;18.59;74.04
22257;BME280;11297;42.686;23.374;2022-09-27T00:19:39;94082.19;;;18.48;71.67
22257;BME280;11297;42.686;23.374;2022-09-27T00:22:04;94100.56;;;18.38;72.63
22257;BME280;11297;42.686;23.374;2022-09-27T00:24:29;94108.47;;;18.38;73.35
22257;BME280;11297;42.686;23.374;2022-09-27T00:26:56;94089.94;;;18.14;71.46
22257;BME280;11297;42.686;23.374;2022-09-27T00:29:21;94118.13;;;18.13;72.62
22257;BME280;11297;42.686;23.374;2022-09-27T00:31:47;94115.88;;;18.15;73.53
22257;BME280;11297;42.686;23.374;2022-09-27T00:34:18;94110.59;;;18.15;75.02
22257;BME280;11297;42.686;23.374;2022-09-27T00:36:44;94119.19;;;18.12;75.34
22257;BME280;11297;42.686;23.374;2022-09-27T00:39:09;94111.25;;;18.02;77.39
22257;BME280;11297;42.686;23.374;2022-09-27T00:41:36;94096.66;;;18.08;77.32
22257;BME280;11297;42.686;23.374;2022-09-27T00:47:03;94085.19;;;17.76;77.91
22257;BME280;11297;42.686;23.374;2022-09-27T00:52:05;94090.81;;;17.78;78.99
22257;BME280;11297;42.686;23.374;2022-09-27T00:54:33;94091.63;;;17.82;78.09
22257;BME280;11297;42.686;23.374;2022-09-27T00:57:02;94081.47;;;17.80;77.43
22257;BME280;11297;42.686;23.374;2022-09-27T00:59:31;94084.84;;;17.81;78.25
22257;BME280;11297;42.686;23.374;2022-09-27T01:01:58;94084.47;;;17.82;77.65
22257;BME280;11297;42.686;23.374;2022-09-27T01:04:26;94075.13;;;17.88;77.74
22257;BME280;11297;42.686;23.374;2022-09-27T01:06:54;94081.16;;;17.92;77.39
22257;BME280;11297;42.686;23.374;2022-09-27T01:09:20;94072.81;;;17.76;78.22
22257;BME280;11297;42.686;23.374;2022-09-27T01:26:34;94051.84;;;17.87;77.35
22257;BME280;11297;42.686;23.374;2022-09-27T01:37:38;94069.75;;;17.71;78.44
22257;BME280;11297;42.686;23.374;2022-09-27T01:40:27;94054.03;;;17.74;77.72
22257;BME280;11297;42.686;23.374;2022-09-27T01:43:06;94076.53;;;17.75;78.00
22257;BME280;11297;42.686;23.374;2022-09-27T01:48:22;94055.22;;;17.84;78.40
22257;BME280;11297;42.686;23.374;2022-09-27T01:50:59;94059.72;;;17.83;77.55
22257;BME280;11297;42.686;23.374;2022-09-27T01:53:32;94058.19;;;17.82;78.35
22257;BME280;11297;42.686;23.374;2022-09-27T01:56:03;94052.19;;;17.82;78.66
22257;BME280;11297;42.686;23.374;2022-09-27T01:59:04;94071.69;;;17.77;78.16
22257;BME280;11297;42.686;23.374;2022-09-27T02:01:33;94064.91;;;17.73;78.79
22257;BME280;11297;42.686;23.374;2022-09-27T02:04:01;94057.03;;;17.80;78.61
22257;BME280;11297;42.686;23.374;2022-09-27T02:06:35;94064.56;;;17.78;78.99
22257;BME280;11297;42.686;23.374;2022-09-27T02:09:12;94033.75;;;17.78;79.18
22257;BME280;11297;42.686;23.374;2022-09-27T02:11:41;94063.75;;;17.74;78.75
22257;BME280;11297;42.686;23.374;2022-09-27T02:14:24;94042.66;;;17.60;79.92
22257;BME280;11297;42.686;23.374;2022-09-27T02:19:55;94024.41;;;17.77;79.50
22257;BME280;11297;42.686;23.374;2022-09-27T02:22:29;94010.09;;;17.72;79.24
22257;BME280;11297;42.686;23.374;2022-09-27T02:25:42;94017.22;;;17.71;79.70
22257;BME280;11297;42.686;23.374;2022-09-27T02:30:53;93995.09;;;17.72;79.65
22257;BME280;11297;42.686;23.374;2022-09-27T02:33:23;93990.94;;;17.68;79.96
22257;BME280;11297;42.686;23.374;2022-09-27T02:35:50;93990.81;;;17.50;80.60
22257;BME280;11297;42.686;23.374;2022-09-27T02:38:16;93981.09;;;17.58;80.39
22257;BME280;11297;42.686;23.374;2022-09-27T02:40:45;93977.00;;;17.64;79.51
22257;BME280;11297;42.686;23.374;2022-09-27T02:43:13;93954.47;;;17.59;79.57
22257;BME280;11297;42.686;23.374;2022-09-27T02:57:35;93989.41;;;17.60;80.16
22257;BME280;11297;42.686;23.374;2022-09-27T03:00:09;93991.97;;;17.53;80.70
22257;BME280;11297;42.686;23.374;2022-09-27T03:05:28;94002.16;;;17.65;80.52
22257;BME280;11297;42.686;23.374;2022-09-27T03:07:54;93983.78;;;17.65;80.72
22257;BME280;11297;42.686;23.374;2022-09-27T03:10:22;93961.66;;;17.66;80.78
22257;BME280;11297;42.686;23.374;2022-09-27T03:12:48;93951.06;;;17.48;81.06
22257;BME280;11297;42.686;23.374;2022-09-27T03:15:15;93940.22;;;17.57;81.32
22257;BME280;11297;42.686;23.374;2022-09-27T03:17:40;93945.06;;;17.55;81.54
22257;BME280;11297;42.686;23.374;2022-09-27T03:20:06;93924.41;;;17.50;81.62
22257;BME280;11297;42.686;23.374;2022-09-27T03:22:33;93923.31;;;17.51;81.72
22257;BME280;11297;42.686;23.374;2022-09-27T03:24:58;93920.22;;;17.35;82.49
22257;BME280;11297;42.686;23.374;2022-09-27T03:27:24;93907.41;;;17.26;83.01
22257;BME280;11297;42.686;23.374;2022-09-27T03:29:49;93916.41;;;17.25;83.13
22257;BME280;11297;42.686;23.374;2022-09-27T03:32:15;93913.44;;;17.30;82.74
22257;BME280;11297;42.686;23.374;2022-09-27T03:34:40;93887.91;;;17.24;82.88
22257;BME280;11297;42.686;23.374;2022-09-27T03:37:06;93903.34;;;17.36;84.27
22257;BME280;11297;42.686;23.374;2022-09-27T03:39:32;93916.91;;;17.45;83.45
22257;BME280;11297;42.686;23.374;2022-09-27T03:41:58;93895.47;;;17.39;83.10
22257;BME280;11297;42.686;23.374;2022-09-27T03:44:23;93898.91;;;17.50;81.86
22257;BME280;11297;42.686;23.374;2022-09-27T03:46:48;93918.47;;;17.67;81.72
22257;BME280;11297;42.686;23.374;2022-09-27T03:49:14;93906.13;;;17.71;81.20
22257;BME280;11297;42.686;23.374;2022-09-27T03:51:39;93905.34;;;17.67;81.14
22257;BME280;11297;42.686;23.374;2022-09-27T03:54:05;93912.13;;;17.64;81.25
22257;BME280;11297;42.686;23.374;2022-09-27T03:56:31;93915.06;;;17.56;80.96
22257;BME280;11297;42.686;23.374;2022-09-27T03:58:56;93918.47;;;17.67;80.71
22257;BME280;11297;42.686;23.374;2022-09-27T04:01:21;93911.00;;;17.72;80.62
22257;BME280;11297;42.686;23.374;2022-09-27T04:03:47;93911.47;;;17.95;83.36
22257;BME280;11297;42.686;23.374;2022-09-27T04:06:12;93919.88;;;19.28;85.98
22257;BME280;11297;42.686;23.374;2022-09-27T04:08:39;93923.69;;;19.07;76.16
22257;BME280;11297;42.686;23.374;2022-09-27T04:11:04;93914.25;;;18.95;77.25
22257;BME280;11297;42.686;23.374;2022-09-27T04:13:29;93932.31;;;18.86;75.93
22257;BME280;11297;42.686;23.374;2022-09-27T04:15:55;93921.41;;;18.84;75.86
22257;BME280;11297;42.686;23.374;2022-09-27T04:18:20;93908.25;;;18.88;80.19
22257;BME280;11297;42.686;23.374;2022-09-27T04:20:46;93910.50;;;18.79;76.78
22257;BME280;11297;42.686;23.374;2022-09-27T04:23:11;93883.81;;;18.60;75.75
22257;BME280;11297;42.686;23.374;2022-09-27T04:25:36;93898.84;;;18.76;75.44
22257;BME280;11297;42.686;23.374;2022-09-27T04:28:04;93896.19;;;18.66;75.54
22257;BME280;11297;42.686;23.374;2022-09-27T04:30:30;93910.88;;;18.57;76.35
22257;BME280;11297;42.686;23.374;2022-09-27T04:32:56;93902.97;;;18.53;76.48
22257;BME280;11297;42.686;23.374;2022-09-27T04:35:21;93910.09;;;18.53;76.66
22257;BME280;11297;42.686;23.374;2022-09-27T04:38:05;93922.50;;;18.56;76.55
22257;BME280;11297;42.686;23.374;2022-09-27T04:40:33;93918.38;;;18.58;76.69
22257;BME280;11297;42.686;23.374;2022-09-27T04:42:59;93921.00;;;18.58;76.73
22257;BME280;11297;42.686;23.374;2022-09-27T04:45:25;93917.59;;;18.44;76.71
22257;BME280;11297;42.686;23.374;2022-09-27T04:47:50;93915.38;;;18.46;76.75
22257;BME280;11297;42.686;23.374;2022-09-27T04:50:17;93914.97;;;18.44;76.85
22257;BME280;11297;42.686;23.374;2022-09-27T04:52:44;93923.25;;;18.39;77.48
22257;BME280;11297;42.686;23.374;2022-09-27T04:55:13;93918.34;;;18.30;77.33
22257;BME280;11297;42.686;23.374;2022-09-27T04:57:39;93914.22;;;18.29;77.48
22257;BME280;11297;42.686;23.374;2022-09-27T05:00:05;93931.13;;;18.32;77.32
22257;BME280;11297;42.686;23.374;2022-09-27T05:02:30;93946.16;;;18.28;77.84
22257;BME280;11297;42.686;23.374;2022-09-27T05:04:56;93940.88;;;18.28;77.96
22257;BME280;11297;42.686;23.374;2022-09-27T05:07:24;93933.38;;;18.26;77.52
22257;BME280;11297;42.686;23.374;2022-09-27T05:09:49;93928.84;;;18.20;78.15
22257;BME280;11297;42.686;23.374;2022-09-27T05:12:15;93913.81;;;18.21;78.11
22257;BME280;11297;42.686;23.374;2022-09-27T05:14:40;93910.00;;;18.08;77.72
22257;BME280;11297;42.686;23.374;2022-09-27T05:17:05;93905.06;;;17.89;78.66
22257;BME280;11297;42.686;23.374;2022-09-27T05:19:34;93908.41;;;17.79;79.37
22257;BME280;11297;42.686;23.374;2022-09-27T05:22:00;93891.91;;;17.82;79.44
22257;BME280;11297;42.686;23.374;2022-09-27T05:24:25;93908.38;;;17.75;79.54
22257;BME280;11297;42.686;23.374;2022-09-27T05:26:52;93916.69;;;17.84;79.89
22257;BME280;11297;42.686;23.374;2022-09-27T05:29:18;93915.19;;;17.90;80.25
22257;BME280;11297;42.686;23.374;2022-09-27T05:31:43;93902.09;;;17.94;78.96
22257;BME280;11297;42.686;23.374;2022-09-27T05:34:09;93887.06;;;17.94;77.83
22257;BME280;11297;42.686;23.374;2022-09-27T05:36:36;93884.44;;;17.94;78.00
22257;BME280;11297;42.686;23.374;2022-09-27T05:39:02;93902.13;;;18.04;77.80
22257;BME280;11297;42.686;23.374;2022-09-27T05:41:28;93903.66;;;18.16;77.73
22257;BME280;11297;42.686;23.374;2022-09-27T05:43:55;93912.69;;;18.21;77.76
22257;BME280;11297;42.686;23.374;2022-09-27T05:46:21;93919.84;;;18.28;77.49
22257;BME280;11297;42.686;23.374;2022-09-27T05:48:46;93918.72;;;18.39;77.15
22257;BME280;11297;42.686;23.374;2022-09-27T05:51:11;93907.84;;;18.41;76.76
22257;BME280;11297;42.686;23.374;2022-09-27T05:53:38;93908.22;;;18.39;76.34
22257;BME280;11297;42.686;23.374;2022-09-27T05:56:04;93915.75;;;18.48;76.88
22257;BME280;11297;42.686;23.374;2022-09-27T05:58:29;93901.47;;;18.38;77.25
22257;BME280;11297;42.686;23.374;2022-09-27T06:00:55;93904.09;;;18.38;77.41
22257;BME280;11297;42.686;23.374;2022-09-27T06:03:20;93887.53;;;18.27;77.42
22257;BME280;11297;42.686;23.374;2022-09-27T06:05:46;93915.34;;;18.39;77.38
22257;BME280;11297;42.686;23.374;2022-09-27T06:08:12;93922.88;;;18.37;78.10
22257;BME280;11297;42.686;23.374;2022-09-27T06:10:39;93917.63;;;18.40;78.24
22257;BME280;11297;42.686;23.374;2022-09-27T06:13:07;93919.13;;;18.41;78.09
22257;BME280;11297;42.686;23.374;2022-09-27T06:15:35;93915.75;;;18.48;78.13
22257;BME280;11297;42.686;23.374;2022-09-27T06:18:07;93905.22;;;18.48;77.94
22257;BME280;11297;42.686;23.374;2022-09-27T06:20:34;93918.00;;;18.56;77.76
22257;BME280;11297;42.686;23.374;2022-09-27T06:23:04;93894.72;;;18.44;78.18
22257;BME280;11297;42.686;23.374;2022-09-27T06:25:29;93909.72;;;18.65;77.70
22257;BME280;11297;42.686;23.374;2022-09-27T06:27:55;93908.97;;;18.67;78.16
22257;BME280;11297;42.686;23.374;2022-09-27T06:30:20;93899.22;;;18.65;77.54
22257;BME280;11297;42.686;23.374;2022-09-27T06:32:45;93903.34;;;18.52;78.27
22257;BME280;11297;42.686;23.374;2022-09-27T06:35:11;93907.09;;;18.51;78.78
22257;BME280;11297;42.686;23.374;2022-09-27T06:37:36;93901.47;;;18.52;79.47
22257;BME280;11297;42.686;23.374;2022-09-27T06:40:01;93896.94;;;18.53;78.95
22257;BME280;11297;42.686;23.374;2022-09-27T06:42:27;93921.38;;;18.43;79.72
22257;BME280;11297;42.686;23.374;2022-09-27T06:44:54;93917.22;;;18.45;80.08
22257;BME280;11297;42.686;23.374;2022-09-27T06:47:20;93909.34;;;18.42;79.97
22257;BME280;11297;42.686;23.374;2022-09-27T06:49:45;93897.72;;;18.43;80.03
22257;BME280;11297;42.686;23.374;2022-09-27T06:52:11;93904.84;;;18.46;79.98
22257;BME280;11297;42.686;23.374;2022-09-27T06:54:36;93920.63;;;18.46;80.16
22257;BME280;11297;42.686;23.374;2022-09-27T06:57:01;93910.47;;;18.48;79.55
22257;BME280;11297;42.686;23.374;2022-09-27T06:59:27;93909.72;;;18.51;79.42
22257;BME280;11297;42.686;23.374;2022-09-27T07:02:11;93898.47;;;18.54;78.85
22257;BME280;11297;42.686;23.374;2022-09-27T07:04:38;93908.22;;;18.36;78.12
22257;BME280;11297;42.686;23.374;2022-09-27T07:07:03;93902.19;;;18.39;77.84
22257;BME280;11297;42.686;23.374;2022-09-27T07:09:29;93920.59;;;18.32;78.41
22257;BME280;11297;42.686;23.374;2022-09-27T07:11:54;93921.34;;;18.29;79.09
22257;BME280;11297;42.686;23.374;2022-09-27T07:14:20;93894.66;;;18.27;78.79
22257;BME280;11297;42.686;23.374;2022-09-27T07:16:46;93904.44;;;18.33;78.98
22257;BME280;11297;42.686;23.374;2022-09-27T07:19:11;93926.25;;;18.48;78.81
22257;BME280;11297;42.686;23.374;2022-09-27T07:21:38;93914.63;;;18.59;78.46
22257;BME280;11297;42.686;23.374;2022-09-27T07:24:04;93913.13;;;18.58;79.04
22257;BME280;11297;42.686;23.374;2022-09-27T07:26:30;93916.50;;;18.69;78.75
22257;BME280;11297;42.686;23.374;2022-09-27T07:28:55;93915.41;;;18.77;78.53
22257;BME280;11297;42.686;23.374;2022-09-27T07:31:21;93916.13;;;18.67;78.34
22257;BME280;11297;42.686;23.374;2022-09-27T07:33:47;93918.03;;;18.67;78.66
22257;BME280;11297;42.686;23.374;2022-09-27T07:36:13;93918.00;;;18.70;78.98
22257;BME280;11297;42.686;23.374;2022-09-27T07:38:38;93916.88;;;18.74;79.70
22257;BME280;11297;42.686;23.374;2022-09-27T07:41:12;93920.28;;;18.71;80.76
22257;BME280;11297;42.686;23.374;2022-09-27T07:43:40;93917.25;;;18.73;80.83
22257;BME280;11297;42.686;23.374;2022-09-27T07:46:05;93926.66;;;18.70;80.84
22257;BME280;11297;42.686;23.374;2022-09-27T07:48:32;93930.41;;;18.83;83.67
22257;BME280;11297;42.686;23.374;2022-09-27T07:50:57;93943.97;;;19.13;87.58
22257;BME280;11297;42.686;23.374;2022-09-27T07:53:24;93944.72;;;19.38;83.72
22257;BME280;11297;42.686;23.374;2022-09-27T07:55:52;93936.28;;;19.84;84.67
22257;BME280;11297;42.686;23.374;2022-09-27T07:58:19;93942.56;;;20.21;80.40
22257;BME280;11297;42.686;23.374;2022-09-27T08:00:44;93929.69;;;20.91;76.99
22257;BME280;11297;42.686;23.374;2022-09-27T08:03:15;93922.78;;;21.44;73.86
22257;BME280;11297;42.686;23.374;2022-09-27T08:05:49;93931.41;;;21.52;72.09
22257;BME280;11297;42.686;23.374;2022-09-27T08:08:16;93913.94;;;21.94;70.78
22257;BME280;11297;42.686;23.374;2022-09-27T08:10:41;93916.31;;;21.85;67.26
22257;BME280;11297;42.686;23.374;2022-09-27T08:13:09;93902.94;;;21.66;67.26
22257;BME280;11297;42.686;23.374;2022-09-27T08:15:35;93904.66;;;21.43;68.10
22257;BME280;11297;42.686;23.374;2022-09-27T08:18:02;93906.63;;;21.35;68.20
22257;BME280;11297;42.686;23.374;2022-09-27T08:20:28;93906.38;;;21.23;68.54
22257;BME280;11297;42.686;23.374;2022-09-27T08:22:53;93899.44;;;20.99;69.53
22257;BME280;11297;42.686;23.374;2022-09-27T08:25:19;93907.59;;;20.68;70.98
22257;BME280;11297;42.686;23.374;2022-09-27T08:27:54;93910.72;;;20.53;72.15
22257;BME280;11297;42.686;23.374;2022-09-27T08:30:20;93905.53;;;20.35;73.44
22257;BME280;11297;42.686;23.374;2022-09-27T08:32:46;93909.06;;;20.12;74.44
22257;BME280;11297;42.686;23.374;2022-09-27T08:35:11;93906.47;;;20.05;75.61
22257;BME280;11297;42.686;23.374;2022-09-27T08:37:39;93900.88;;;19.96;76.39
22257;BME280;11297;42.686;23.374;2022-09-27T08:40:05;93885.47;;;19.87;76.59
22257;BME280;11297;42.686;23.374;2022-09-27T08:42:36;93879.06;;;19.88;76.13
22257;BME280;11297;42.686;23.374;2022-09-27T08:47:39;93876.75;;;19.97;75.95
22257;BME280;11297;42.686;23.374;2022-09-27T08:50:25;93879.34;;;20.04;75.84
22257;BME280;11297;42.686;23.374;2022-09-27T08:52:59;93866.53;;;20.03;76.16
22257;BME280;11297;42.686;23.374;2022-09-27T08:58:20;93885.72;;;20.10;76.18
22257;BME280;11297;42.686;23.374;2022-09-27T09:00:50;93887.94;;;20.18;76.55
22257;BME280;11297;42.686;23.374;2022-09-27T09:03:21;93883.41;;;20.19;76.06
22257;BME280;11297;42.686;23.374;2022-09-27T09:06:06;93866.09;;;20.18;76.57
22257;BME280;11297;42.686;23.374;2022-09-27T09:09:01;93869.78;;;20.27;74.70
22257;BME280;11297;42.686;23.374;2022-09-27T09:20:56;93875.72;;;20.42;75.65
22257;BME280;11297;42.686;23.374;2022-09-27T09:23:35;93859.97;;;20.28;75.30
22257;BME280;11297;42.686;23.374;2022-09-27T09:29:03;93865.72;;;20.16;75.73
22257;BME280;11297;42.686;23.374;2022-09-27T09:31:49;93868.00;;;20.14;75.72
22257;BME280;11297;42.686;23.374;2022-09-27T09:34:38;93863.09;;;20.13;76.34
22257;BME280;11297;42.686;23.374;2022-09-27T09:37:18;93867.97;;;20.21;76.53
22257;BME280;11297;42.686;23.374;2022-09-27T09:40:21;93858.06;;;20.32;75.75
22257;BME280;11297;42.686;23.374;2022-09-27T09:42:59;93852.72;;;20.39;74.99
22257;BME280;11297;42.686;23.374;2022-09-27T09:45:29;93854.16;;;20.50;73.75
22257;BME280;11297;42.686;23.374;2022-09-27T09:48:06;93860.44;;;20.66;73.96
22257;BME280;11297;42.686;23.374;2022-09-27T09:50:46;93851.38;;;20.71;73.24
22257;BME280;11297;42.686;23.374;2022-09-27T09:53:20;93856.28;;;20.72;72.97
22257;BME280;11297;42.686;23.374;2022-09-27T09:56:01;93855.06;;;20.80;72.33
22257;BME280;11297;42.686;23.374;2022-09-27T10:00:59;93862.25;;;20.80;73.21
22257;BME280;11297;42.686;23.374;2022-09-27T10:03:33;93847.44;;;20.89;73.58
22257;BME280;11297;42.686;23.374;2022-09-27T10:05:59;93846.34;;;20.87;73.58
22257;BME280;11297;42.686;23.374;2022-09-27T10:08:24;93865.59;;;20.87;75.20
22257;BME280;11297;42.686;23.374;2022-09-27T10:10:50;93855.38;;;20.89;74.75
22257;BME280;11297;42.686;23.374;2022-09-27T10:13:18;93844.16;;;20.78;74.88
22257;BME280;11297;42.686;23.374;2022-09-27T10:15:53;93847.63;;;20.68;75.59
22257;BME280;11297;42.686;23.374;2022-09-27T10:18:21;93840.19;;;20.53;75.28
22257;BME280;11297;42.686;23.374;2022-09-27T10:20:51;93856.78;;;20.54;76.59
22257;BME280;11297;42.686;23.374;2022-09-27T10:23:19;93834.88;;;20.57;76.38
22257;BME280;11297;42.686;23.374;2022-09-27T10:25:53;93834.53;;;20.55;76.23
22257;BME280;11297;42.686;23.374;2022-09-27T10:28:27;93812.81;;;20.80;76.75
22257;BME280;11297;42.686;23.374;2022-09-27T10:30:58;93807.81;;;20.93;73.74
22257;BME280;11297;42.686;23.374;2022-09-27T10:33:24;93818.97;;;21.07;74.41
22257;BME280;11297;42.686;23.374;2022-09-27T10:35:49;93819.34;;;21.09;74.11
22257;BME280;11297;42.686;23.374;2022-09-27T10:40:46;93829.28;;;20.95;74.06
22257;BME280;11297;42.686;23.374;2022-09-27T10:43:29;93817.94;;;20.98;73.07
22257;BME280;11297;42.686;23.374;2022-09-27T10:48:35;93814.28;;;20.88;72.81
22257;BME280;11297;42.686;23.374;2022-09-27T10:51:04;93832.28;;;21.00;72.92
22257;BME280;11297;42.686;23.374;2022-09-27T10:53:31;93823.34;;;21.24;76.30
22257;BME280;11297;42.686;23.374;2022-09-27T10:55:58;93811.56;;;21.91;74.20
22257;BME280;11297;42.686;23.374;2022-09-27T10:58:30;93822.97;;;22.14;70.54
22257;BME280;11297;42.686;23.374;2022-09-27T11:01:15;93796.78;;;22.20;69.12
22257;BME280;11297;42.686;23.374;2022-09-27T11:03:53;93774.13;;;22.22;68.63
22257;BME280;11297;42.686;23.374;2022-09-27T11:08:49;93768.38;;;22.50;67.75
22257;BME280;11297;42.686;23.374;2022-09-27T11:13:56;93773.91;;;22.59;66.88
22257;BME280;11297;42.686;23.374;2022-09-27T11:25:30;93760.25;;;22.60;67.26
22257;BME280;11297;42.686;23.374;2022-09-27T11:28:47;93762.13;;;22.60;66.04
22257;BME280;11297;42.686;23.374;2022-09-27T11:31:42;93745.03;;;22.64;65.64
22257;BME280;11297;42.686;23.374;2022-09-27T11:59:42;93713.06;;;22.75;63.56
22257;BME280;11297;42.686;23.374;2022-09-27T12:10:16;93709.38;;;23.30;61.63
22257;BME280;11297;42.686;23.374;2022-09-27T12:12:45;93698.56;;;23.41;61.47
22257;BME280;11297;42.686;23.374;2022-09-27T12:15:35;93697.31;;;23.64;61.21
22257;BME280;11297;42.686;23.374;2022-09-27T12:20:35;93683.44;;;23.73;59.58
22257;BME280;11297;42.686;23.374;2022-09-27T12:23:17;93670.38;;;23.82;59.30
22257;BME280;11297;42.686;23.374;2022-09-27T12:25:49;93680.25;;;23.97;58.86
22257;BME280;11297;42.686;23.374;2022-09-27T12:28:25;93669.28;;;23.95;58.94
22257;BME280;11297;42.686;23.374;2022-09-27T12:31:29;93659.81;;;24.10;58.39
22257;BME280;11297;42.686;23.374;2022-09-27T12:34:15;93646.28;;;24.20;59.04
22257;BME280;11297;42.686;23.374;2022-09-27T12:36:46;93632.00;;;24.30;58.08
22257;BME280;11297;42.686;23.374;2022-09-27T12:39:24;93625.88;;;24.17;58.13
22257;BME280;11297;42.686;23.374;2022-09-27T12:42:02;93613.19;;;24.25;57.97
22257;BME280;11297;42.686;23.374;2022-09-27T12:44:38;93610.63;;;24.37;57.63
22257;BME280;11297;42.686;23.374;2022-09-27T12:52:31;93604.13;;;24.38;57.01
22257;BME280;11297;42.686;23.374;2022-09-27T13:00:23;93606.66;;;24.57;55.96
22257;BME280;11297;42.686;23.374;2022-09-27T13:06:24;93608.81;;;24.62;55.16
22257;BME280;11297;42.686;23.374;2022-09-27T13:14:26;93607.50;;;24.95;55.20
22257;BME280;11297;42.686;23.374;2022-09-27T13:16:53;93621.72;;;24.89;56.63
22257;BME280;11297;42.686;23.374;2022-09-27T13:22:36;93623.22;;;24.90;55.37
22257;BME280;11297;42.686;23.374;2022-09-27T13:25:13;93617.94;;;25.02;54.82
22257;BME280;11297;42.686;23.374;2022-09-27T13:27:48;93624.28;;;25.20;53.76
22257;BME280;11297;42.686;23.374;2022-09-27T13:35:35;93603.22;;;25.50;51.76
22257;BME280;11297;42.686;23.374;2022-09-27T13:38:01;93597.56;;;25.48;50.62
22257;BME280;11297;42.686;23.374;2022-09-27T13:40:29;93608.84;;;25.65;50.21
22257;BME280;11297;42.686;23.374;2022-09-27T13:45:59;93615.53;;;25.57;56.12
22257;BME280;11297;42.686;23.374;2022-09-27T13:48:31;93636.41;;;25.46;57.19
22257;BME280;11297;42.686;23.374;2022-09-27T13:51:11;93631.50;;;25.45;56.92
22257;BME280;11297;42.686;23.374;2022-09-27T13:53:41;93649.47;;;25.41;56.59
22257;BME280;11297;42.686;23.374;2022-09-27T13:59:03;93638.97;;;25.37;57.39
22257;BME280;11297;42.686;23.374;2022-09-27T14:01:35;93636.50;;;25.18;57.91
22257;BME280;11297;42.686;23.374;2022-09-27T14:04:23;93616.94;;;24.96;56.42
22257;BME280;11297;42.686;23.374;2022-09-27T14:06:56;93620.97;;;24.76;55.86
22257;BME280;11297;42.686;23.374;2022-09-27T14:09:28;93616.50;;;24.73;56.18
22257;BME280;11297;42.686;23.374;2022-09-27T14:11:59;93614.84;;;24.63;57.72
22257;BME280;11297;42.686;23.374;2022-09-27T14:14:27;93617.63;;;24.59;57.67
22257;BME280;11297;42.686;23.374;2022-09-27T14:16:57;93613.78;;;24.60;57.44
22257;BME280;11297;42.686;23.374;2022-09-27T14:19:24;93617.19;;;24.33;57.78
22257;BME280;11297;42.686;23.374;2022-09-27T14:21:50;93619.19;;;24.13;59.41
22257;BME280;11297;42.686;23.374;2022-09-27T14:32:16;93620.56;;;23.03;62.45
22257;BME280;11297;42.686;23.374;2022-09-27T14:34:43;93605.63;;;22.93;63.59
22257;BME280;11297;42.686;23.374;2022-09-27T14:37:27;93583.25;;;22.78;63.49
22257;BME280;11297;42.686;23.374;2022-09-27T14:40:16;93610.53;;;22.75;63.32
22257;BME280;11297;42.686;23.374;2022-09-27T14:42:43;93625.81;;;22.68;64.22
22257;BME280;11297;42.686;23.374;2022-09-27T14:45:21;93622.69;;;22.54;64.93
22257;BME280;11297;42.686;23.374;2022-09-27T14:47:49;93605.91;;;22.41;64.68
22257;BME280;11297;42.686;23.374;2022-09-27T14:50:22;93602.78;;;22.26;65.02
22257;BME280;11297;42.686;23.374;2022-09-27T14:52:49;93601.56;;;22.08;65.25
22257;BME280;11297;42.686;23.374;2022-09-27T14:55:21;93613.31;;;22.07;65.78
22257;BME280;11297;42.686;23.374;2022-09-27T14:57:59;93604.06;;;21.96;65.92
22257;BME280;11297;42.686;23.374;2022-09-27T15:00:29;93612.69;;;21.77;67.03
22257;BME280;11297;42.686;23.374;2022-09-27T15:02:58;93622.97;;;21.71;67.60
22257;BME280;11297;42.686;23.374;2022-09-27T15:05:29;93597.78;;;21.63;68.13
22257;BME280;11297;42.686;23.374;2022-09-27T15:07:58;93591.34;;;21.64;68.15
22257;BME280;11297;42.686;23.374;2022-09-27T15:10:28;93597.44;;;21.61;67.79
22257;BME280;11297;42.686;23.374;2022-09-27T15:12:58;93646.41;;;21.69;68.36
22257;BME280;11297;42.686;23.374;2022-09-27T15:15:34;93676.38;;;21.63;68.65
22257;BME280;11297;42.686;23.374;2022-09-27T15:18:00;93702.66;;;21.44;71.68
22257;BME280;11297;42.686;23.374;2022-09-27T15:20:34;93748.38;;;20.34;74.17
22257;BME280;11297;42.686;23.374;2022-09-27T15:23:04;93735.22;;;19.77;66.27
22257;BME280;11297;42.686;23.374;2022-09-27T15:26:15;93735.88;;;19.34;68.32
22257;BME280;11297;42.686;23.374;2022-09-27T15:28:47;93759.31;;;19.04;70.31
22257;BME280;11297;42.686;23.374;2022-09-27T15:31:13;93770.25;;;18.85;72.04
22257;BME280;11297;42.686;23.374;2022-09-27T15:33:40;93753.72;;;18.81;71.70
22257;BME280;11297;42.686;23.374;2022-09-27T15:36:10;93762.00;;;18.80;72.51
22257;BME280;11297;42.686;23.374;2022-09-27T15:38:43;93751.91;;;18.58;71.28
22257;BME280;11297;42.686;23.374;2022-09-27T15:41:13;93753.81;;;18.16;72.81
22257;BME280;11297;42.686;23.374;2022-09-27T15:43:50;93759.41;;;18.11;73.26
22257;BME280;11297;42.686;23.374;2022-09-27T15:46:36;93785.31;;;17.91;74.51
22257;BME280;11297;42.686;23.374;2022-09-27T15:51:41;93786.06;;;18.13;76.21
22257;BME280;11297;42.686;23.374;2022-09-27T15:54:07;93751.16;;;18.02;76.72
22257;BME280;11297;42.686;23.374;2022-09-27T15:56:33;93738.03;;;18.09;76.21